sensor_id;sensor_type;location;lat;lon;timestamp;pressure;altitude;pressure_sealevel;temperature;humidity
55191;BME280;41070;50.360;18.742;2023-04-28T00:01:19;99114.68;;;5.49;70.62
55191;BME280;41070;50.360;18.742;2023-04-28T00:04:26;99111.32;;;5.50;70.73
55191;BME280;41070;50.360;18.742;2023-04-28T00:07:33;99112.59;;;5.49;70.62
55191;BME280;41070;50.360;18.742;2023-04-28T00:10:40;99113.56;;;5.52;70.93
55191;BME280;41070;50.360;18.742;2023-04-28T00:13:47;99114.11;;;5.57;71.09
55191;BME280;41070;50.360;18.742;2023-04-28T00:16:54;99114.23;;;5.58;71.26
55191;BME280;41070;50.360;18.742;2023-04-28T00:20:15;99113.15;;;5.54;71.27
55191;BME280;41070;50.360;18.742;2023-04-28T00:23:16;99105.36;;;5.47;71.18
55191;BME280;41070;50.360;18.742;2023-04-28T00:26:22;99100.81;;;5.44;71.21
55191;BME280;41070;50.360;18.742;2023-04-28T00:29:31;99104.17;;;5.37;71.40
55191;BME280;41070;50.360;18.742;2023-04-28T00:32:17;99107.04;;;5.29;71.15
55191;BME280;41070;50.360;18.742;2023-04-28T00:35:24;99104.34;;;5.25;71.25
55191;BME280;41070;50.360;18.742;2023-04-28T00:38:57;99106.45;;;5.23;71.17
55191;BME280;41070;50.360;18.742;2023-04-28T00:45:01;99111.15;;;5.28;71.03
55191;BME280;41070;50.360;18.742;2023-04-28T00:48:57;99107.75;;;5.33;71.02
55191;BME280;41070;50.360;18.742;2023-04-28T00:54:41;99107.55;;;5.19;71.05
55191;BME280;41070;50.360;18.742;2023-04-28T00:57:50;99105.77;;;5.11;71.17
55191;BME280;41070;50.360;18.742;2023-04-28T01:01:21;99109.34;;;5.05;71.17
55191;BME280;41070;50.360;18.742;2023-04-28T01:04:04;99107.91;;;5.01;71.21
55191;BME280;41070;50.360;18.742;2023-04-28T01:07:11;99104.36;;;4.92;71.07
55191;BME280;41070;50.360;18.742;2023-04-28T01:10:42;99108.16;;;4.84;71.32
55191;BME280;41070;50.360;18.742;2023-04-28T01:13:47;99106.81;;;4.82;71.44
55191;BME280;41070;50.360;18.742;2023-04-28T01:16:33;99112.36;;;4.80;71.60
55191;BME280;41070;50.360;18.742;2023-04-28T01:22:55;99110.27;;;4.73;71.81
55191;BME280;41070;50.360;18.742;2023-04-28T01:26:27;99102.59;;;4.71;71.91
55191;BME280;41070;50.360;18.742;2023-04-28T01:29:12;99105.52;;;4.70;71.78
55191;BME280;41070;50.360;18.742;2023-04-28T01:32:19;99108.36;;;4.65;71.75
55191;BME280;41070;50.360;18.742;2023-04-28T01:35:26;99104.52;;;4.56;71.82
55191;BME280;41070;50.360;18.742;2023-04-28T01:38:37;99103.77;;;4.36;72.07
55191;BME280;41070;50.360;18.742;2023-04-28T01:41:43;99105.39;;;4.20;72.81
55191;BME280;41070;50.360;18.742;2023-04-28T01:45:30;99101.66;;;4.14;73.01
55191;BME280;41070;50.360;18.742;2023-04-28T01:48:06;99104.15;;;4.14;73.35
55191;BME280;41070;50.360;18.742;2023-04-28T01:51:12;99103.52;;;4.20;73.34
55191;BME280;41070;50.360;18.742;2023-04-28T01:54:19;99104.81;;;4.26;73.47
55191;BME280;41070;50.360;18.742;2023-04-28T02:00:22;99101.80;;;4.33;73.11
55191;BME280;41070;50.360;18.742;2023-04-28T02:03:29;99104.02;;;4.33;73.28
55191;BME280;41070;50.360;18.742;2023-04-28T02:07:15;99101.98;;;4.34;73.06
55191;BME280;41070;50.360;18.742;2023-04-28T02:09:52;99105.61;;;4.33;73.13
55191;BME280;41070;50.360;18.742;2023-04-28T02:13:00;99103.27;;;4.33;73.06
55191;BME280;41070;50.360;18.742;2023-04-28T02:16:06;99105.69;;;4.36;72.89
55191;BME280;41070;50.360;18.742;2023-04-28T02:19:25;99104.18;;;4.33;72.91
55191;BME280;41070;50.360;18.742;2023-04-28T02:22:26;99096.35;;;4.29;72.86
55191;BME280;41070;50.360;18.742;2023-04-28T02:26:12;99089.58;;;4.28;73.08
55191;BME280;41070;50.360;18.742;2023-04-28T02:28:48;99091.08;;;4.32;72.97
55191;BME280;41070;50.360;18.742;2023-04-28T02:31:55;99087.08;;;4.29;72.73
55191;BME280;41070;50.360;18.742;2023-04-28T02:35:02;99083.80;;;4.25;72.54
55191;BME280;41070;50.360;18.742;2023-04-28T02:38:09;99078.29;;;4.14;72.36
55191;BME280;41070;50.360;18.742;2023-04-28T02:41:36;99077.33;;;4.04;72.26
55191;BME280;41070;50.360;18.742;2023-04-28T02:44:25;99081.33;;;3.94;72.23
55191;BME280;41070;50.360;18.742;2023-04-28T02:50:31;99082.65;;;3.86;72.34
55191;BME280;41070;50.360;18.742;2023-04-28T02:53:38;99074.92;;;3.82;72.26
55191;BME280;41070;50.360;18.742;2023-04-28T02:57:06;99074.38;;;3.75;72.06
55191;BME280;41070;50.360;18.742;2023-04-28T02:59:54;99075.07;;;3.71;72.24
55191;BME280;41070;50.360;18.742;2023-04-28T03:03:22;99071.34;;;3.64;72.06
55191;BME280;41070;50.360;18.742;2023-04-28T03:06:10;99076.45;;;3.59;72.31
55191;BME280;41070;50.360;18.742;2023-04-28T03:09:29;99074.98;;;3.52;72.11
55191;BME280;41070;50.360;18.742;2023-04-28T03:12:29;99075.47;;;3.47;72.33
55191;BME280;41070;50.360;18.742;2023-04-28T03:15:36;99075.94;;;3.43;72.29
55191;BME280;41070;50.360;18.742;2023-04-28T03:18:42;99073.67;;;3.42;72.49
55191;BME280;41070;50.360;18.742;2023-04-28T03:21:49;99079.88;;;3.41;72.33
55191;BME280;41070;50.360;18.742;2023-04-28T03:24:56;99077.96;;;3.42;72.56
55191;BME280;41070;50.360;18.742;2023-04-28T03:28:02;99074.04;;;3.42;72.52
55191;BME280;41070;50.360;18.742;2023-04-28T03:31:10;99072.83;;;3.37;72.46
55191;BME280;41070;50.360;18.742;2023-04-28T03:34:17;99073.91;;;3.31;72.33
55191;BME280;41070;50.360;18.742;2023-04-28T03:37:36;99078.03;;;3.26;72.54
55191;BME280;41070;50.360;18.742;2023-04-28T03:40:36;99074.75;;;3.26;72.69
55191;BME280;41070;50.360;18.742;2023-04-28T03:43:42;99077.24;;;3.31;72.56
55191;BME280;41070;50.360;18.742;2023-04-28T03:46:49;99069.77;;;3.32;72.46
55191;BME280;41070;50.360;18.742;2023-04-28T03:50:06;99070.07;;;3.33;72.77
55191;BME280;41070;50.360;18.742;2023-04-28T03:53:12;99070.36;;;3.36;72.58
55191;BME280;41070;50.360;18.742;2023-04-28T03:56:21;99075.23;;;3.40;72.58
55191;BME280;41070;50.360;18.742;2023-04-28T03:59:28;99071.73;;;3.45;72.65
55191;BME280;41070;50.360;18.742;2023-04-28T04:02:34;99066.83;;;3.48;72.73
55191;BME280;41070;50.360;18.742;2023-04-28T04:05:42;99073.70;;;3.53;72.77
55191;BME280;41070;50.360;18.742;2023-04-28T04:08:49;99077.93;;;3.58;72.73
55191;BME280;41070;50.360;18.742;2023-04-28T04:15:03;99086.77;;;3.75;72.72
55191;BME280;41070;50.360;18.742;2023-04-28T04:18:12;99089.02;;;3.85;72.65
55191;BME280;41070;50.360;18.742;2023-04-28T04:21:17;99088.08;;;3.97;72.72
55191;BME280;41070;50.360;18.742;2023-04-28T04:24:23;99095.60;;;4.08;72.62
55191;BME280;41070;50.360;18.742;2023-04-28T04:27:23;99096.95;;;4.20;72.53
55191;BME280;41070;50.360;18.742;2023-04-28T04:30:29;99097.24;;;4.32;72.59
55191;BME280;41070;50.360;18.742;2023-04-28T04:33:36;99095.05;;;4.44;72.85
55191;BME280;41070;50.360;18.742;2023-04-28T04:36:44;99093.78;;;4.55;73.23
55191;BME280;41070;50.360;18.742;2023-04-28T04:39:51;99094.45;;;4.72;73.35
55191;BME280;41070;50.360;18.742;2023-04-28T04:43:28;99085.09;;;4.90;73.09
55191;BME280;41070;50.360;18.742;2023-04-28T04:50:00;99091.06;;;5.17;72.48
55191;BME280;41070;50.360;18.742;2023-04-28T04:53:13;99095.17;;;5.30;72.52
55191;BME280;41070;50.360;18.742;2023-04-28T04:56:26;99094.27;;;5.45;72.71
55191;BME280;41070;50.360;18.742;2023-04-28T04:59:33;99093.77;;;5.59;72.22
55191;BME280;41070;50.360;18.742;2023-04-28T05:02:39;99096.55;;;5.71;71.79
55191;BME280;41070;50.360;18.742;2023-04-28T05:08:53;99095.95;;;5.87;71.37
55191;BME280;41070;50.360;18.742;2023-04-28T05:12:00;99091.30;;;5.95;70.68
55191;BME280;41070;50.360;18.742;2023-04-28T05:15:06;99091.48;;;6.03;70.58
55191;BME280;41070;50.360;18.742;2023-04-28T05:21:16;99089.75;;;6.13;70.08
55191;BME280;41070;50.360;18.742;2023-04-28T05:24:23;99090.19;;;6.22;70.23
55191;BME280;41070;50.360;18.742;2023-04-28T05:27:32;99089.19;;;6.29;69.88
55191;BME280;41070;50.360;18.742;2023-04-28T05:30:38;99088.70;;;6.36;69.48
55191;BME280;41070;50.360;18.742;2023-04-28T05:33:44;99085.69;;;6.42;69.76
55191;BME280;41070;50.360;18.742;2023-04-28T05:36:51;99089.65;;;6.50;69.69
55191;BME280;41070;50.360;18.742;2023-04-28T05:43:04;99087.48;;;6.64;69.17
55191;BME280;41070;50.360;18.742;2023-04-28T05:46:11;99089.15;;;6.70;69.41
55191;BME280;41070;50.360;18.742;2023-04-28T05:49:19;99086.95;;;6.78;69.24
55191;BME280;41070;50.360;18.742;2023-04-28T05:52:26;99087.34;;;6.87;68.67
55191;BME280;41070;50.360;18.742;2023-04-28T05:58:39;99086.17;;;7.12;68.20
55191;BME280;41070;50.360;18.742;2023-04-28T06:01:46;99086.46;;;7.21;67.50
55191;BME280;41070;50.360;18.742;2023-04-28T06:04:52;99086.17;;;7.32;67.23
55191;BME280;41070;50.360;18.742;2023-04-28T06:10:59;99089.54;;;7.49;67.12
55191;BME280;41070;50.360;18.742;2023-04-28T06:14:06;99086.45;;;7.59;67.29
55191;BME280;41070;50.360;18.742;2023-04-28T06:17:13;99091.89;;;7.67;66.80
55191;BME280;41070;50.360;18.742;2023-04-28T06:20:19;99092.13;;;7.76;66.45
55191;BME280;41070;50.360;18.742;2023-04-28T06:23:26;99091.28;;;7.93;65.99
55191;BME280;41070;50.360;18.742;2023-04-28T06:26:33;99086.11;;;8.16;66.21
55191;BME280;41070;50.360;18.742;2023-04-28T06:29:39;99080.45;;;8.37;65.56
55191;BME280;41070;50.360;18.742;2023-04-28T06:32:46;99083.39;;;8.54;65.30
55191;BME280;41070;50.360;18.742;2023-04-28T06:38:53;99081.23;;;8.66;63.67
55191;BME280;41070;50.360;18.742;2023-04-28T06:42:02;99083.84;;;8.76;63.05
55191;BME280;41070;50.360;18.742;2023-04-28T06:45:07;99080.07;;;8.92;63.00
55191;BME280;41070;50.360;18.742;2023-04-28T06:48:15;99081.11;;;9.02;62.59
55191;BME280;41070;50.360;18.742;2023-04-28T06:51:21;99076.30;;;9.12;61.77
55191;BME280;41070;50.360;18.742;2023-04-28T06:57:34;99068.95;;;9.42;61.05
55191;BME280;41070;50.360;18.742;2023-04-28T07:00:41;99063.90;;;9.54;60.46
55191;BME280;41070;50.360;18.742;2023-04-28T07:03:48;99062.05;;;9.59;60.15
55191;BME280;41070;50.360;18.742;2023-04-28T07:06:54;99057.91;;;9.67;59.76
55191;BME280;41070;50.360;18.742;2023-04-28T07:10:01;99054.25;;;9.80;59.42
55191;BME280;41070;50.360;18.742;2023-04-28T07:13:08;99050.14;;;9.91;59.38
55191;BME280;41070;50.360;18.742;2023-04-28T07:16:14;99047.34;;;10.04;59.36
55191;BME280;41070;50.360;18.742;2023-04-28T07:19:21;99042.36;;;10.12;58.71
55191;BME280;41070;50.360;18.742;2023-04-28T07:22:27;99040.28;;;10.20;58.21
55191;BME280;41070;50.360;18.742;2023-04-28T07:25:37;99041.20;;;10.27;58.03
55191;BME280;41070;50.360;18.742;2023-04-28T07:28:42;99041.31;;;10.40;57.71
55191;BME280;41070;50.360;18.742;2023-04-28T07:32:10;99037.98;;;10.57;57.45
55191;BME280;41070;50.360;18.742;2023-04-28T07:34:58;99037.92;;;10.71;57.14
55191;BME280;41070;50.360;18.742;2023-04-28T07:38:05;99036.25;;;10.86;56.58
55191;BME280;41070;50.360;18.742;2023-04-28T07:41:11;99032.39;;;10.99;56.66
55191;BME280;41070;50.360;18.742;2023-04-28T07:44:19;99030.64;;;11.13;56.83
55191;BME280;41070;50.360;18.742;2023-04-28T07:47:26;99030.88;;;11.29;56.56
55191;BME280;41070;50.360;18.742;2023-04-28T07:50:34;99031.72;;;11.42;54.92
55191;BME280;41070;50.360;18.742;2023-04-28T07:53:41;99032.09;;;11.52;54.79
55191;BME280;41070;50.360;18.742;2023-04-28T07:59:47;99022.19;;;11.72;54.25
55191;BME280;41070;50.360;18.742;2023-04-28T08:02:54;99015.09;;;11.83;54.05
55191;BME280;41070;50.360;18.742;2023-04-28T08:06:01;99021.84;;;11.96;54.18
55191;BME280;41070;50.360;18.742;2023-04-28T08:09:08;99020.80;;;12.06;53.45
55191;BME280;41070;50.360;18.742;2023-04-28T08:15:20;99015.83;;;12.06;51.72
55191;BME280;41070;50.360;18.742;2023-04-28T08:21:29;99014.55;;;12.07;50.94
55191;BME280;41070;50.360;18.742;2023-04-28T08:24:36;99014.14;;;12.11;49.94
55191;BME280;41070;50.360;18.742;2023-04-28T08:30:49;99009.61;;;12.23;50.15
55191;BME280;41070;50.360;18.742;2023-04-28T08:33:51;99009.30;;;12.26;49.06
55191;BME280;41070;50.360;18.742;2023-04-28T08:36:56;99002.77;;;12.22;48.51
55191;BME280;41070;50.360;18.742;2023-04-28T08:39:48;98998.98;;;12.30;48.66
55191;BME280;41070;50.360;18.742;2023-04-28T08:46:27;98992.11;;;12.49;48.51
55191;BME280;41070;50.360;18.742;2023-04-28T08:49:50;98995.17;;;12.60;48.84
55191;BME280;41070;50.360;18.742;2023-04-28T08:52:41;98994.15;;;12.75;48.86
55191;BME280;41070;50.360;18.742;2023-04-28T08:55:51;98993.30;;;12.78;48.22
55191;BME280;41070;50.360;18.742;2023-04-28T08:59:00;98992.25;;;12.76;47.03
55191;BME280;41070;50.360;18.742;2023-04-28T09:05:00;98985.05;;;13.02;47.92
55191;BME280;41070;50.360;18.742;2023-04-28T09:08:07;98981.25;;;13.14;47.50
55191;BME280;41070;50.360;18.742;2023-04-28T09:14:57;98972.90;;;13.26;45.57
55191;BME280;41070;50.360;18.742;2023-04-28T09:18:05;98969.07;;;13.35;45.93
55191;BME280;41070;50.360;18.742;2023-04-28T09:20:47;98968.58;;;13.45;45.80
55191;BME280;41070;50.360;18.742;2023-04-28T09:23:54;98970.06;;;13.42;45.41
55191;BME280;41070;50.360;18.742;2023-04-28T09:30:17;98961.88;;;13.36;44.85
55191;BME280;41070;50.360;18.742;2023-04-28T09:33:24;98956.59;;;13.48;44.91
55191;BME280;41070;50.360;18.742;2023-04-28T09:39:38;98953.23;;;13.64;44.98
55191;BME280;41070;50.360;18.742;2023-04-28T09:45:57;98946.64;;;13.68;44.93
55191;BME280;41070;50.360;18.742;2023-04-28T09:52:14;98933.54;;;14.07;45.92
55191;BME280;41070;50.360;18.742;2023-04-28T09:58:28;98929.14;;;14.19;44.16
55191;BME280;41070;50.360;18.742;2023-04-28T10:01:59;98926.20;;;14.32;43.72
55191;BME280;41070;50.360;18.742;2023-04-28T10:04:42;98920.73;;;14.32;43.29
55191;BME280;41070;50.360;18.742;2023-04-28T10:07:48;98914.95;;;14.45;43.53
55191;BME280;41070;50.360;18.742;2023-04-28T10:14:02;98910.11;;;14.83;43.71
55191;BME280;41070;50.360;18.742;2023-04-28T10:17:33;98907.73;;;14.83;43.64
55191;BME280;41070;50.360;18.742;2023-04-28T10:20:16;98902.64;;;14.88;42.87
55191;BME280;41070;50.360;18.742;2023-04-28T10:29:43;98895.07;;;14.81;42.63
55191;BME280;41070;50.360;18.742;2023-04-28T10:33:21;98892.27;;;14.89;41.89
55191;BME280;41070;50.360;18.742;2023-04-28T10:36:09;98887.96;;;15.06;42.37
55191;BME280;41070;50.360;18.742;2023-04-28T10:51:55;98863.52;;;15.70;41.26
55191;BME280;41070;50.360;18.742;2023-04-28T10:55:24;98856.20;;;15.74;40.46
55191;BME280;41070;50.360;18.742;2023-04-28T11:17:40;98822.99;;;16.41;39.93
55191;BME280;41070;50.360;18.742;2023-04-28T11:20:37;98825.89;;;16.37;39.59
55191;BME280;41070;50.360;18.742;2023-04-28T11:23:44;98818.16;;;16.34;39.48
55191;BME280;41070;50.360;18.742;2023-04-28T11:27:22;98820.35;;;16.37;39.36
55191;BME280;41070;50.360;18.742;2023-04-28T11:29:59;98815.75;;;16.42;40.05
55191;BME280;41070;50.360;18.742;2023-04-28T11:33:07;98802.69;;;16.50;37.66
55191;BME280;41070;50.360;18.742;2023-04-28T11:39:27;98803.80;;;16.43;39.22
55191;BME280;41070;50.360;18.742;2023-04-28T11:42:17;98807.75;;;16.57;38.81
55191;BME280;41070;50.360;18.742;2023-04-28T11:45:23;98804.98;;;16.71;40.13
55191;BME280;41070;50.360;18.742;2023-04-28T11:51:48;98807.48;;;16.65;38.71
55191;BME280;41070;50.360;18.742;2023-04-28T11:55:01;98805.45;;;16.75;37.71
55191;BME280;41070;50.360;18.742;2023-04-28T11:58:32;98808.38;;;16.75;39.07
55191;BME280;41070;50.360;18.742;2023-04-28T12:07:41;98785.31;;;16.76;38.05
55191;BME280;41070;50.360;18.742;2023-04-28T12:11:15;98785.38;;;16.85;38.32
55191;BME280;41070;50.360;18.742;2023-04-28T12:14:22;98777.42;;;17.02;39.20
55191;BME280;41070;50.360;18.742;2023-04-28T12:17:05;98782.24;;;17.14;38.44
55191;BME280;41070;50.360;18.742;2023-04-28T12:23:27;98776.54;;;17.13;37.96
55191;BME280;41070;50.360;18.742;2023-04-28T12:26:36;98769.75;;;17.20;38.25
55191;BME280;41070;50.360;18.742;2023-04-28T12:32:55;98758.88;;;17.26;37.35
55191;BME280;41070;50.360;18.742;2023-04-28T12:35:38;98748.75;;;17.20;36.91
55191;BME280;41070;50.360;18.742;2023-04-28T12:39:13;98743.33;;;17.15;37.32
55191;BME280;41070;50.360;18.742;2023-04-28T12:42:16;98744.50;;;17.18;37.69
55191;BME280;41070;50.360;18.742;2023-04-28T12:45:23;98743.88;;;17.18;36.88
55191;BME280;41070;50.360;18.742;2023-04-28T12:48:29;98746.13;;;17.23;37.20
55191;BME280;41070;50.360;18.742;2023-04-28T12:52:02;98736.65;;;17.34;36.78
55191;BME280;41070;50.360;18.742;2023-04-28T12:58:09;98727.78;;;17.42;36.00
55191;BME280;41070;50.360;18.742;2023-04-28T13:04:19;98717.75;;;17.62;36.06
55191;BME280;41070;50.360;18.742;2023-04-28T13:07:05;98713.65;;;17.76;36.18
55191;BME280;41070;50.360;18.742;2023-04-28T13:13:19;98710.27;;;17.94;36.98
55191;BME280;41070;50.360;18.742;2023-04-28T13:16:26;98711.04;;;17.96;35.99
55191;BME280;41070;50.360;18.742;2023-04-28T13:19:35;98708.80;;;17.94;34.46
55191;BME280;41070;50.360;18.742;2023-04-28T13:22:42;98701.45;;;17.93;34.91
55191;BME280;41070;50.360;18.742;2023-04-28T13:25:49;98693.33;;;17.86;34.22
55191;BME280;41070;50.360;18.742;2023-04-28T13:28:56;98692.17;;;17.87;35.75
55191;BME280;41070;50.360;18.742;2023-04-28T13:35:02;98691.28;;;18.17;36.65
55191;BME280;41070;50.360;18.742;2023-04-28T13:38:09;98691.64;;;18.28;36.89
55191;BME280;41070;50.360;18.742;2023-04-28T13:41:17;98685.35;;;18.33;36.50
55191;BME280;41070;50.360;18.742;2023-04-28T13:44:24;98677.26;;;18.27;35.92
55191;BME280;41070;50.360;18.742;2023-04-28T13:47:32;98668.42;;;17.99;35.97
55191;BME280;41070;50.360;18.742;2023-04-28T13:50:38;98664.70;;;17.79;35.44
55191;BME280;41070;50.360;18.742;2023-04-28T13:53:50;98669.29;;;17.84;35.64
55191;BME280;41070;50.360;18.742;2023-04-28T13:57:10;98665.20;;;17.86;35.98
55191;BME280;41070;50.360;18.742;2023-04-28T14:00:26;98662.39;;;17.81;36.45
55191;BME280;41070;50.360;18.742;2023-04-28T14:03:54;98660.85;;;17.74;35.47
55191;BME280;41070;50.360;18.742;2023-04-28T14:10:05;98658.39;;;17.63;36.75
55191;BME280;41070;50.360;18.742;2023-04-28T14:16:19;98655.44;;;17.21;36.91
55191;BME280;41070;50.360;18.742;2023-04-28T14:26:00;98645.54;;;17.14;37.35
55191;BME280;41070;50.360;18.742;2023-04-28T14:32:13;98641.23;;;17.38;37.58
55191;BME280;41070;50.360;18.742;2023-04-28T14:35:21;98643.33;;;17.36;37.12
55191;BME280;41070;50.360;18.742;2023-04-28T14:38:28;98642.16;;;17.24;37.16
55191;BME280;41070;50.360;18.742;2023-04-28T14:41:36;98637.83;;;17.23;36.65
55191;BME280;41070;50.360;18.742;2023-04-28T14:44:43;98632.96;;;17.22;36.10
55191;BME280;41070;50.360;18.742;2023-04-28T14:47:48;98631.66;;;17.30;36.49
55191;BME280;41070;50.360;18.742;2023-04-28T14:50:40;98628.88;;;17.44;36.47
55191;BME280;41070;50.360;18.742;2023-04-28T14:53:48;98629.33;;;17.52;36.56
55191;BME280;41070;50.360;18.742;2023-04-28T14:56:55;98627.70;;;17.53;36.63
55191;BME280;41070;50.360;18.742;2023-04-28T15:03:05;98632.81;;;17.42;37.29
55191;BME280;41070;50.360;18.742;2023-04-28T15:09:16;98622.61;;;17.51;37.73
55191;BME280;41070;50.360;18.742;2023-04-28T15:12:23;98618.91;;;17.45;37.32
55191;BME280;41070;50.360;18.742;2023-04-28T15:15:31;98620.07;;;17.32;36.72
55191;BME280;41070;50.360;18.742;2023-04-28T15:24:36;98615.48;;;17.11;37.06
55191;BME280;41070;50.360;18.742;2023-04-28T15:30:42;98612.48;;;17.03;37.86
55191;BME280;41070;50.360;18.742;2023-04-28T15:33:30;98606.30;;;16.97;37.29
55191;BME280;41070;50.360;18.742;2023-04-28T15:36:39;98597.63;;;16.84;37.50
55191;BME280;41070;50.360;18.742;2023-04-28T15:39:49;98591.25;;;16.72;37.68
55191;BME280;41070;50.360;18.742;2023-04-28T15:42:56;98589.91;;;16.67;38.05
55191;BME280;41070;50.360;18.742;2023-04-28T15:46:02;98589.52;;;16.61;38.25
55191;BME280;41070;50.360;18.742;2023-04-28T15:49:09;98588.05;;;16.55;37.37
55191;BME280;41070;50.360;18.742;2023-04-28T15:52:16;98580.79;;;16.54;38.17
55191;BME280;41070;50.360;18.742;2023-04-28T15:55:23;98577.94;;;16.53;38.45
55191;BME280;41070;50.360;18.742;2023-04-28T15:58:30;98574.13;;;16.46;37.92
55191;BME280;41070;50.360;18.742;2023-04-28T16:01:37;98570.87;;;16.39;37.79
55191;BME280;41070;50.360;18.742;2023-04-28T16:04:44;98571.86;;;16.37;38.26
55191;BME280;41070;50.360;18.742;2023-04-28T16:10:50;98572.80;;;16.41;38.84
55191;BME280;41070;50.360;18.742;2023-04-28T16:13:57;98570.51;;;16.45;38.78
55191;BME280;41070;50.360;18.742;2023-04-28T16:17:03;98566.66;;;16.48;39.09
55191;BME280;41070;50.360;18.742;2023-04-28T16:20:10;98565.59;;;16.51;39.17
55191;BME280;41070;50.360;18.742;2023-04-28T16:23:17;98571.23;;;16.53;39.43
55191;BME280;41070;50.360;18.742;2023-04-28T16:26:25;98567.88;;;16.46;39.59
55191;BME280;41070;50.360;18.742;2023-04-28T16:29:32;98561.76;;;16.36;40.30
55191;BME280;41070;50.360;18.742;2023-04-28T16:32:39;98559.50;;;16.28;40.03
55191;BME280;41070;50.360;18.742;2023-04-28T16:35:52;98557.69;;;16.22;40.72
55191;BME280;41070;50.360;18.742;2023-04-28T16:38:53;98552.02;;;16.11;40.64
55191;BME280;41070;50.360;18.742;2023-04-28T16:45:06;98556.09;;;15.87;41.41
55191;BME280;41070;50.360;18.742;2023-04-28T16:48:05;98554.34;;;15.76;41.57
55191;BME280;41070;50.360;18.742;2023-04-28T16:51:12;98552.54;;;15.64;41.44
55191;BME280;41070;50.360;18.742;2023-04-28T16:54:27;98548.34;;;15.56;41.48
55191;BME280;41070;50.360;18.742;2023-04-28T16:57:34;98543.76;;;15.49;41.73
55191;BME280;41070;50.360;18.742;2023-04-28T17:03:49;98551.68;;;15.36;42.53
55191;BME280;41070;50.360;18.742;2023-04-28T17:06:54;98551.92;;;15.27;42.86
55191;BME280;41070;50.360;18.742;2023-04-28T17:12:59;98553.45;;;15.05;43.26
55191;BME280;41070;50.360;18.742;2023-04-28T17:16:06;98556.13;;;14.94;43.67
55191;BME280;41070;50.360;18.742;2023-04-28T17:19:13;98551.36;;;14.85;43.99
55191;BME280;41070;50.360;18.742;2023-04-28T17:22:19;98550.83;;;14.78;43.69
55191;BME280;41070;50.360;18.742;2023-04-28T17:25:25;98553.48;;;14.65;43.79
55191;BME280;41070;50.360;18.742;2023-04-28T17:28:32;98555.37;;;14.55;43.95
55191;BME280;41070;50.360;18.742;2023-04-28T17:31:39;98558.95;;;14.46;43.99
55191;BME280;41070;50.360;18.742;2023-04-28T17:34:46;98562.68;;;14.36;44.55
55191;BME280;41070;50.360;18.742;2023-04-28T17:37:56;98563.89;;;14.27;44.74
55191;BME280;41070;50.360;18.742;2023-04-28T17:41:00;98561.45;;;14.15;44.86
55191;BME280;41070;50.360;18.742;2023-04-28T17:44:07;98558.39;;;14.03;45.17
55191;BME280;41070;50.360;18.742;2023-04-28T17:47:14;98561.70;;;13.92;45.41
55191;BME280;41070;50.360;18.742;2023-04-28T17:50:21;98560.79;;;13.81;45.74
55191;BME280;41070;50.360;18.742;2023-04-28T17:53:29;98560.53;;;13.68;46.01
55191;BME280;41070;50.360;18.742;2023-04-28T17:56:37;98563.77;;;13.56;46.33
55191;BME280;41070;50.360;18.742;2023-04-28T18:00:08;98562.99;;;13.46;46.91
55191;BME280;41070;50.360;18.742;2023-04-28T18:02:51;98566.11;;;13.39;47.63
55191;BME280;41070;50.360;18.742;2023-04-28T18:05:58;98570.91;;;13.32;47.70
55191;BME280;41070;50.360;18.742;2023-04-28T18:09:04;98570.42;;;13.27;47.86
55191;BME280;41070;50.360;18.742;2023-04-28T18:12:14;98568.94;;;13.20;48.40
55191;BME280;41070;50.360;18.742;2023-04-28T18:15:18;98564.19;;;13.15;48.74
55191;BME280;41070;50.360;18.742;2023-04-28T18:18:16;98563.98;;;13.12;48.66
55191;BME280;41070;50.360;18.742;2023-04-28T18:21:23;98570.55;;;13.10;48.57
55191;BME280;41070;50.360;18.742;2023-04-28T18:27:36;98568.86;;;13.01;48.79
55191;BME280;41070;50.360;18.742;2023-04-28T18:30:42;98569.44;;;12.94;49.15
55191;BME280;41070;50.360;18.742;2023-04-28T18:33:49;98573.28;;;12.85;49.35
55191;BME280;41070;50.360;18.742;2023-04-28T18:36:55;98571.83;;;12.76;49.68
55191;BME280;41070;50.360;18.742;2023-04-28T18:40:02;98576.29;;;12.69;50.04
55191;BME280;41070;50.360;18.742;2023-04-28T18:43:10;98576.04;;;12.63;49.61
55191;BME280;41070;50.360;18.742;2023-04-28T18:46:16;98580.80;;;12.60;49.87
55191;BME280;41070;50.360;18.742;2023-04-28T18:52:31;98581.46;;;12.49;50.00
55191;BME280;41070;50.360;18.742;2023-04-28T18:55:39;98583.39;;;12.38;50.31
55191;BME280;41070;50.360;18.742;2023-04-28T18:59:10;98581.89;;;12.32;50.32
55191;BME280;41070;50.360;18.742;2023-04-28T19:02:17;98585.04;;;12.25;50.61
55191;BME280;41070;50.360;18.742;2023-04-28T19:05:03;98586.58;;;12.17;51.01
55191;BME280;41070;50.360;18.742;2023-04-28T19:08:12;98586.27;;;12.05;51.48
55191;BME280;41070;50.360;18.742;2023-04-28T19:11:22;98586.94;;;11.94;52.02
55191;BME280;41070;50.360;18.742;2023-04-28T19:14:29;98584.98;;;11.81;52.57
55191;BME280;41070;50.360;18.742;2023-04-28T19:26:47;98584.85;;;11.62;53.38
55191;BME280;41070;50.360;18.742;2023-04-28T19:29:35;98574.30;;;11.63;53.53
55191;BME280;41070;50.360;18.742;2023-04-28T19:32:41;98573.70;;;11.62;53.56
55191;BME280;41070;50.360;18.742;2023-04-28T19:35:49;98567.05;;;11.60;53.66
55191;BME280;41070;50.360;18.742;2023-04-28T19:38:55;98572.02;;;11.60;53.57
55191;BME280;41070;50.360;18.742;2023-04-28T19:42:03;98567.72;;;11.60;53.48
55191;BME280;41070;50.360;18.742;2023-04-28T19:49:54;98559.77;;;11.49;53.69
55191;BME280;41070;50.360;18.742;2023-04-28T19:53:31;98563.98;;;11.46;53.92
55191;BME280;41070;50.360;18.742;2023-04-28T19:56:43;98558.44;;;11.38;54.21
55191;BME280;41070;50.360;18.742;2023-04-28T19:59:49;98556.06;;;11.35;54.13
55191;BME280;41070;50.360;18.742;2023-04-28T20:02:57;98553.48;;;11.32;54.34